createdAt,value
2018-09-26T00:01:08.780Z,79.49
2018-09-26T00:04:17.360Z,79.41
2018-09-26T00:07:21.417Z,79.71
2018-09-26T00:10:25.422Z,79.97
2018-09-26T00:13:29.462Z,79.79
2018-09-26T00:16:33.489Z,79.92
2018-09-26T00:19:37.518Z,80.30
2018-09-26T00:22:41.548Z,79.88
2018-09-26T00:25:45.607Z,79.44
2018-09-26T00:28:49.624Z,80.27
2018-09-26T00:31:53.636Z,80.21
2018-09-26T00:34:57.685Z,79.73
2018-09-26T00:38:01.705Z,80.36
2018-09-26T00:41:05.776Z,79.79
2018-09-26T00:44:10.152Z,79.88
2018-09-26T00:47:14.186Z,79.57
2018-09-26T00:50:18.499Z,80.75
2018-09-26T00:53:22.472Z,80.24
2018-09-26T00:56:26.590Z,80.21
2018-09-26T00:59:30.603Z,79.87
2018-09-26T01:02:34.893Z,80.19
2018-09-26T01:05:38.984Z,79.99
2018-09-26T01:08:43.018Z,80.05
2018-09-26T01:11:47.262Z,80.62
2018-09-26T01:14:51.289Z,79.96
2018-09-26T01:17:55.284Z,79.79
2018-09-26T01:20:59.322Z,79.87
2018-09-26T01:24:03.319Z,79.96
2018-09-26T01:27:07.304Z,79.70
2018-09-26T01:30:11.315Z,80.70
2018-09-26T01:33:15.347Z,79.90
2018-09-26T01:36:19.402Z,80.05
2018-09-26T01:39:23.491Z,79.81
2018-09-26T01:42:27.947Z,80.23
2018-09-26T01:45:31.985Z,80.03
2018-09-26T01:48:35.971Z,80.56
2018-09-26T01:51:40.016Z,80.60
2018-09-26T01:54:44.226Z,80.31
2018-09-26T01:57:48.263Z,80.04
2018-09-26T02:00:52.309Z,80.83
2018-09-26T02:03:56.615Z,79.94
2018-09-26T02:07:00.649Z,80.16
2018-09-26T02:10:05.231Z,80.04
2018-09-26T02:13:09.372Z,79.75
2018-09-26T02:16:13.484Z,80.24
2018-09-26T02:19:17.539Z,80.47
2018-09-26T02:22:21.542Z,80.71
2018-09-26T02:25:25.599Z,80.36
2018-09-26T02:28:29.635Z,80.36
2018-09-26T02:31:33.987Z,80.35
2018-09-26T02:34:38.024Z,80.15
2018-09-26T02:37:42.270Z,79.96
2018-09-26T02:40:46.307Z,80.42
2018-09-26T02:43:50.327Z,80.21
2018-09-26T02:46:54.358Z,81.06
2018-09-26T02:49:58.412Z,80.89
2018-09-26T02:53:02.444Z,80.71
2018-09-26T02:56:06.460Z,80.39
2018-09-26T02:59:10.511Z,80.90
2018-09-26T03:02:15.063Z,80.89
2018-09-26T03:05:19.140Z,80.38
2018-09-26T03:08:23.379Z,81.00
2018-09-26T03:11:27.367Z,80.63
2018-09-26T03:14:31.370Z,81.25
2018-09-26T03:17:35.644Z,80.11
2018-09-26T03:20:40.175Z,80.75
2018-09-26T03:23:44.166Z,80.70
2018-09-26T03:26:48.235Z,80.50
2018-09-26T03:29:52.410Z,80.71
2018-09-26T03:32:56.450Z,80.33
2018-09-26T03:36:00.674Z,80.27
2018-09-26T03:39:06.314Z,80.40
2018-09-26T03:42:10.339Z,80.80
2018-09-26T03:45:14.335Z,80.75
2018-09-26T03:48:18.384Z,80.39
2018-09-26T03:51:22.432Z,80.48
2018-09-26T03:54:26.439Z,80.54
2018-09-26T03:57:30.443Z,80.21
2018-09-26T04:00:34.453Z,80.63
2018-09-26T04:03:38.458Z,80.62
2018-09-26T04:06:42.550Z,80.06
2018-09-26T04:09:46.894Z,79.99
2018-09-26T04:12:51.046Z,80.17
2018-09-26T04:15:55.824Z,80.67
2018-09-26T04:18:59.905Z,80.27
2018-09-26T04:22:04.107Z,80.05
2018-09-26T04:25:08.207Z,80.15
2018-09-26T04:28:12.182Z,80.35
2018-09-26T04:31:16.162Z,80.45
2018-09-26T04:34:20.315Z,80.27
2018-09-26T04:37:24.395Z,80.33
2018-09-26T04:40:28.416Z,79.96
2018-09-26T04:43:32.615Z,80.52
2018-09-26T04:46:36.708Z,79.82
2018-09-26T04:49:40.771Z,80.16
2018-09-26T04:52:44.810Z,80.32
2018-09-26T04:55:48.843Z,79.72
2018-09-26T04:58:52.895Z,80.22
2018-09-26T05:01:57.077Z,80.50
2018-09-26T05:05:01.519Z,80.05
2018-09-26T05:08:05.924Z,79.96
2018-09-26T05:11:09.950Z,80.63
2018-09-26T05:14:13.956Z,79.43
2018-09-26T05:17:18.014Z,80.44
2018-09-26T05:20:22.039Z,80.64
2018-09-26T05:23:26.354Z,79.99
2018-09-26T05:26:30.362Z,80.30
2018-09-26T05:29:34.670Z,79.99
2018-09-26T05:32:38.942Z,80.00
2018-09-26T05:35:43.295Z,80.16
2018-09-26T05:38:47.361Z,80.27
2018-09-26T05:41:51.462Z,80.06
2018-09-26T05:44:55.577Z,80.62
2018-09-26T05:47:59.519Z,80.02
2018-09-26T05:51:03.791Z,80.61
2018-09-26T05:54:08.198Z,80.36
2018-09-26T05:57:12.221Z,79.40
2018-09-26T06:00:16.714Z,79.78
2018-09-26T06:03:20.635Z,79.33
2018-09-26T06:06:24.568Z,79.92
2018-09-26T06:09:28.495Z,79.68
2018-09-26T06:12:32.442Z,79.52
2018-09-26T06:15:36.560Z,79.74
2018-09-26T06:18:40.882Z,79.31
2018-09-26T06:21:45.149Z,79.49
2018-09-26T06:24:49.145Z,79.22
2018-09-26T06:27:53.215Z,79.25
2018-09-26T06:30:57.149Z,79.22
2018-09-26T06:34:01.082Z,79.33
2018-09-26T06:37:05.211Z,79.17
2018-09-26T06:40:09.137Z,79.28
2018-09-26T06:43:13.067Z,78.70
2018-09-26T06:46:16.995Z,79.06
2018-09-26T06:49:20.943Z,79.38
2018-09-26T06:52:25.074Z,78.82
2018-09-26T06:55:29.019Z,79.14
2018-09-26T06:58:32.987Z,78.42
2018-09-26T07:01:37.264Z,78.94
2018-09-26T07:04:41.399Z,78.60
2018-09-26T07:07:45.351Z,78.58
2018-09-26T07:10:49.296Z,77.90
2018-09-26T07:13:53.403Z,76.77
2018-09-26T07:16:57.364Z,78.15
2018-09-26T07:20:01.279Z,77.63
2018-09-26T07:23:05.557Z,76.29
2018-09-26T07:26:09.671Z,76.20
2018-09-26T07:29:13.613Z,76.26
2018-09-26T07:32:17.765Z,76.43
2018-09-26T07:35:21.827Z,75.64
2018-09-26T07:38:25.776Z,75.84
2018-09-26T07:41:29.893Z,74.27
2018-09-26T07:44:33.822Z,74.32
2018-09-26T07:47:37.746Z,74.26
2018-09-26T07:50:41.685Z,74.36
2018-09-26T07:53:45.990Z,74.62
2018-09-26T07:56:50.035Z,73.72
2018-09-26T07:59:54.125Z,72.82
2018-09-26T08:02:58.151Z,72.66
2018-09-26T08:06:02.161Z,73.45
2018-09-26T08:09:07.433Z,72.82
2018-09-26T08:12:11.370Z,73.13
2018-09-26T08:15:15.323Z,72.57
2018-09-26T08:18:19.647Z,71.67
2018-09-26T08:21:24.099Z,72.66
2018-09-26T08:24:28.083Z,71.75
2018-09-26T08:27:32.347Z,70.77
2018-09-26T08:30:36.628Z,71.58
2018-09-26T08:33:40.603Z,70.88
2018-09-26T08:36:44.536Z,70.97
2018-09-26T08:39:48.478Z,70.69
2018-09-26T08:42:52.464Z,67.95
2018-09-26T08:45:56.409Z,71.03
2018-09-26T08:49:00.699Z,70.95
2018-09-26T08:52:04.992Z,69.99
2018-09-26T08:55:08.999Z,69.64
2018-09-26T08:58:12.934Z,71.40
2018-09-26T09:01:22.196Z,70.39
2018-09-26T09:04:26.134Z,69.48
2018-09-26T09:07:30.118Z,67.76
2018-09-26T09:10:34.097Z,68.94
2018-09-26T09:13:38.013Z,69.94
2018-09-26T09:16:41.927Z,69.71
2018-09-26T09:19:45.857Z,67.61
2018-09-26T09:22:49.785Z,68.99
2018-09-26T09:25:53.813Z,69.80
2018-09-26T09:28:57.746Z,68.62
2018-09-26T09:32:01.682Z,67.28
2018-09-26T09:35:05.602Z,65.72
2018-09-26T09:38:09.559Z,66.36
2018-09-26T09:41:13.738Z,65.99
2018-09-26T09:44:17.682Z,66.42
2018-09-26T09:47:21.803Z,66.32
2018-09-26T09:50:25.723Z,66.10
2018-09-26T09:53:29.683Z,65.23
2018-09-26T09:56:33.603Z,64.79
2018-09-26T09:59:37.614Z,64.00
2018-09-26T10:02:41.658Z,63.93
2018-09-26T10:05:45.685Z,65.50
2018-09-26T10:08:49.646Z,64.69
2018-09-26T10:11:53.830Z,66.43
2018-09-26T10:14:57.781Z,63.79
2018-09-26T10:18:01.728Z,62.22
2018-09-26T10:21:05.879Z,62.82
2018-09-26T10:24:09.798Z,64.06
2018-09-26T10:27:13.718Z,62.63
2018-09-26T10:30:17.663Z,62.88
2018-09-26T10:33:21.563Z,63.27
2018-09-26T10:36:25.689Z,63.81
2018-09-26T10:39:29.662Z,62.86
2018-09-26T10:42:33.603Z,63.21
2018-09-26T10:45:37.529Z,62.19
2018-09-26T10:48:41.487Z,63.30
2018-09-26T10:51:45.622Z,63.25
2018-09-26T10:54:49.605Z,63.24
2018-09-26T10:57:53.543Z,63.13
2018-09-26T11:00:57.478Z,62.87
2018-09-26T11:04:01.416Z,62.44
2018-09-26T11:07:05.698Z,62.81
2018-09-26T11:10:09.638Z,62.96
2018-09-26T11:13:13.779Z,63.64
2018-09-26T11:16:17.739Z,64.32
2018-09-26T11:19:21.870Z,64.68
2018-09-26T11:22:25.880Z,64.51
2018-09-26T11:25:29.946Z,64.47
2018-09-26T11:28:33.887Z,64.12
2018-09-26T11:31:37.962Z,62.25
2018-09-26T11:34:42.067Z,63.82
2018-09-26T11:37:46.123Z,63.29
2018-09-26T11:40:50.047Z,64.22
2018-09-26T11:43:54.225Z,62.77
2018-09-26T11:46:58.253Z,63.82
2018-09-26T11:50:02.432Z,63.56
2018-09-26T11:53:06.422Z,62.46
2018-09-26T11:56:10.417Z,63.60
2018-09-26T11:59:14.494Z,63.54
2018-09-26T12:02:18.526Z,61.25
2018-09-26T12:05:22.577Z,62.84
2018-09-26T12:08:26.578Z,62.76
2018-09-26T12:11:30.642Z,62.25
2018-09-26T12:14:34.557Z,63.22
2018-09-26T12:17:38.689Z,63.63
2018-09-26T12:20:42.638Z,64.01
2018-09-26T12:23:46.784Z,63.39
2018-09-26T12:26:50.720Z,62.96
2018-09-26T12:29:54.717Z,61.40
2018-09-26T12:32:58.742Z,60.86
2018-09-26T12:36:02.836Z,61.27
2018-09-26T12:39:08.375Z,60.61
2018-09-26T12:42:12.514Z,59.64
2018-09-26T12:45:16.715Z,60.55
2018-09-26T12:48:20.798Z,61.00
2018-09-26T12:51:24.941Z,60.03
2018-09-26T12:54:29.395Z,59.14
2018-09-26T12:57:33.479Z,59.08
2018-09-26T13:00:37.866Z,57.96
2018-09-26T13:03:41.931Z,58.70
2018-09-26T13:06:45.997Z,57.79
2018-09-26T13:09:49.934Z,58.82
2018-09-26T13:12:54.538Z,57.35
2018-09-26T13:15:58.612Z,57.37
2018-09-26T13:19:02.649Z,56.23
2018-09-26T13:22:06.780Z,58.96
2018-09-26T13:25:10.884Z,58.16
2018-09-26T13:28:15.184Z,57.49
2018-09-26T13:31:19.234Z,59.11
2018-09-26T13:34:23.400Z,57.96
2018-09-26T13:37:27.493Z,58.67
2018-09-26T13:40:31.466Z,59.24
2018-09-26T13:43:35.556Z,58.25
2018-09-26T13:46:39.747Z,58.42
2018-09-26T13:49:44.147Z,57.03
2018-09-26T13:52:48.132Z,58.20
2018-09-26T13:55:52.305Z,57.44
2018-09-26T13:58:56.562Z,57.82
2018-09-26T14:02:00.823Z,56.92
2018-09-26T14:05:05.301Z,55.98
2018-09-26T14:08:09.222Z,57.21
2018-09-26T14:11:13.222Z,57.92
2018-09-26T14:14:17.217Z,57.61
2018-09-26T14:17:21.359Z,57.94
2018-09-26T14:20:26.009Z,57.01
2018-09-26T14:23:30.466Z,56.70
2018-09-26T14:26:34.697Z,56.28
2018-09-26T14:29:38.684Z,57.20
2018-09-26T14:32:42.630Z,56.98
2018-09-26T14:35:46.581Z,57.60
2018-09-26T14:38:50.640Z,58.27
2018-09-26T14:41:54.675Z,56.83
2018-09-26T14:44:58.611Z,57.24
2018-09-26T14:48:02.551Z,57.73
2018-09-26T14:51:07.459Z,57.72
2018-09-26T14:54:11.415Z,56.77
2018-09-26T14:57:15.731Z,57.63
2018-09-26T15:00:19.867Z,58.72
2018-09-26T15:03:23.984Z,57.41
2018-09-26T15:06:28.508Z,58.44
2018-09-26T15:09:32.529Z,59.84
2018-09-26T15:12:36.435Z,58.65
2018-09-26T15:15:40.370Z,59.22
2018-09-26T15:18:44.323Z,59.15
2018-09-26T15:21:48.264Z,59.82
2018-09-26T15:24:52.261Z,59.59
2018-09-26T15:27:56.401Z,59.60
2018-09-26T15:31:01.119Z,59.94
2018-09-26T15:34:05.143Z,60.12
2018-09-26T15:37:09.286Z,59.06
2018-09-26T15:40:13.399Z,59.81
2018-09-26T15:43:17.887Z,59.27
2018-09-26T15:46:21.967Z,60.72
2018-09-26T15:49:26.045Z,61.03
2018-09-26T15:52:30.062Z,61.74
2018-09-26T15:55:34.209Z,61.56
2018-09-26T15:58:38.288Z,61.44
2018-09-26T16:01:42.266Z,60.93
2018-09-26T16:04:46.220Z,62.30
2018-09-26T16:07:50.146Z,62.00
2018-09-26T16:10:54.074Z,61.35
2018-09-26T16:13:58.443Z,62.08
2018-09-26T16:17:02.570Z,62.73
2018-09-26T16:20:06.714Z,62.99
2018-09-26T16:23:11.172Z,63.04
2018-09-26T16:26:15.153Z,63.37
2018-09-26T16:29:19.288Z,63.81
2018-09-26T16:32:23.566Z,63.32
2018-09-26T16:35:27.670Z,63.13
2018-09-26T16:38:31.659Z,63.35
2018-09-26T16:41:35.787Z,63.99
2018-09-26T16:44:39.738Z,64.35
2018-09-26T16:47:43.871Z,65.87
2018-09-26T16:50:47.846Z,65.56
2018-09-26T16:53:51.838Z,65.81
2018-09-26T16:56:55.947Z,68.07
2018-09-26T16:59:59.867Z,67.79
2018-09-26T17:03:04.483Z,68.76
2018-09-26T17:06:08.780Z,68.26
2018-09-26T17:09:14.596Z,68.62
2018-09-26T17:12:18.562Z,69.51
2018-09-26T17:15:22.779Z,68.80
2018-09-26T17:18:26.839Z,69.79
2018-09-26T17:21:30.923Z,69.47
2018-09-26T17:24:34.907Z,69.94
2018-09-26T17:27:38.921Z,70.67
2018-09-26T17:30:42.921Z,70.59
2018-09-26T17:33:46.863Z,71.30
2018-09-26T17:36:50.836Z,71.10
2018-09-26T17:39:54.809Z,69.97
2018-09-26T17:42:58.771Z,70.53
2018-09-26T17:46:03.079Z,71.47
2018-09-26T17:49:07.078Z,70.89
2018-09-26T17:52:11.327Z,71.15
2018-09-26T17:55:15.388Z,70.87
2018-09-26T17:58:19.372Z,70.28
2018-09-26T18:01:23.437Z,69.87
2018-09-26T18:04:27.560Z,69.43
2018-09-26T18:07:31.499Z,70.56
2018-09-26T18:10:35.432Z,69.87
2018-09-26T18:13:39.359Z,70.32
2018-09-26T18:16:43.679Z,69.26
2018-09-26T18:19:47.651Z,70.36
2018-09-26T18:22:51.698Z,69.53
2018-09-26T18:25:55.727Z,69.41
2018-09-26T18:28:59.698Z,69.16
2018-09-26T18:32:03.643Z,70.16
2018-09-26T18:35:07.827Z,69.62
2018-09-26T18:38:11.775Z,69.65
2018-09-26T18:41:15.945Z,68.95
2018-09-26T18:44:20.242Z,68.83
2018-09-26T18:47:24.228Z,68.41
2018-09-26T18:50:28.185Z,68.15
2018-09-26T18:53:32.149Z,69.00
2018-09-26T18:56:36.343Z,69.34
2018-09-26T18:59:40.291Z,69.69
2018-09-26T19:02:44.220Z,68.64
2018-09-26T19:05:48.198Z,69.29
2018-09-26T19:08:52.166Z,69.17
2018-09-26T19:11:56.280Z,69.09
2018-09-26T19:15:00.442Z,69.54
2018-09-26T19:18:04.772Z,68.81
2018-09-26T19:21:09.073Z,69.65
2018-09-26T19:24:13.191Z,70.08
2018-09-26T19:27:17.136Z,70.01
2018-09-26T19:30:21.248Z,69.56
2018-09-26T19:33:25.177Z,70.81
2018-09-26T19:36:29.232Z,70.08
2018-09-26T19:39:33.253Z,70.60
2018-09-26T19:42:37.228Z,70.22
2018-09-26T19:45:41.439Z,70.77
2018-09-26T19:48:45.555Z,70.13
2018-09-26T19:51:49.483Z,71.09
2018-09-26T19:54:53.402Z,70.40
2018-09-26T19:57:57.326Z,70.98
2018-09-26T20:01:01.281Z,71.24
2018-09-26T20:04:05.406Z,71.52
2018-09-26T20:07:09.358Z,71.53
2018-09-26T20:10:13.489Z,71.87
2018-09-26T20:13:17.610Z,72.70
2018-09-26T20:16:21.933Z,72.39
2018-09-26T20:19:26.168Z,73.06
2018-09-26T20:22:30.090Z,72.96
2018-09-26T20:25:34.057Z,72.67
2018-09-26T20:28:37.996Z,72.91
2018-09-26T20:31:42.116Z,72.93
2018-09-26T20:34:46.046Z,73.78
2018-09-26T20:37:50.142Z,73.52
2018-09-26T20:40:54.081Z,74.51
2018-09-26T20:43:58.027Z,75.57
2018-09-26T20:47:01.963Z,74.83
2018-09-26T20:50:05.986Z,74.83
2018-09-26T20:53:09.950Z,74.88
2018-09-26T20:56:13.899Z,76.11
2018-09-26T20:59:17.830Z,77.45
2018-09-26T21:02:21.767Z,76.73
2018-09-26T21:05:25.691Z,77.76
2018-09-26T21:08:29.606Z,77.43
2018-09-26T21:11:33.583Z,77.80
2018-09-26T21:14:37.867Z,77.29
2018-09-26T21:17:41.958Z,78.86
2018-09-26T21:20:45.929Z,77.74
2018-09-26T21:23:49.873Z,78.53
2018-09-26T21:26:53.816Z,78.57
2018-09-26T21:29:58.077Z,78.39
2018-09-26T21:33:02.028Z,79.24
2018-09-26T21:36:05.946Z,78.57
2018-09-26T21:39:10.158Z,78.92
2018-09-26T21:42:14.799Z,79.38
2018-09-26T21:45:18.730Z,79.06
2018-09-26T21:48:22.666Z,79.21
2018-09-26T21:51:26.585Z,78.38
2018-09-26T21:54:30.568Z,79.12
2018-09-26T21:57:35.021Z,78.93
2018-09-26T22:00:43.368Z,79.39
2018-09-26T22:03:47.307Z,79.30
2018-09-26T22:06:51.291Z,79.05
2018-09-26T22:09:55.211Z,79.50
2018-09-26T22:12:59.166Z,78.98
2018-09-26T22:16:03.086Z,79.94
2018-09-26T22:19:07.023Z,80.47
2018-09-26T22:22:10.998Z,79.31
2018-09-26T22:25:15.262Z,79.13
2018-09-26T22:28:19.506Z,79.89
2018-09-26T22:31:24.065Z,80.13
2018-09-26T22:34:28.131Z,80.62
2018-09-26T22:37:32.048Z,80.92
2018-09-26T22:40:36.104Z,80.87
2018-09-26T22:43:40.030Z,81.23
2018-09-26T22:46:43.963Z,80.81
2018-09-26T22:49:47.894Z,81.33
2018-09-26T22:52:51.831Z,81.79
2018-09-26T22:55:55.762Z,80.84
2018-09-26T22:58:59.700Z,81.49
2018-09-26T23:02:03.632Z,81.68
2018-09-26T23:05:07.811Z,82.05
2018-09-26T23:08:11.742Z,81.29
2018-09-26T23:11:15.669Z,81.00
2018-09-26T23:14:19.599Z,81.78
2018-09-26T23:17:23.528Z,82.04
2018-09-26T23:20:27.792Z,82.48
2018-09-26T23:23:31.807Z,82.21
2018-09-26T23:26:35.741Z,82.66
2018-09-26T23:29:39.691Z,82.70
2018-09-26T23:32:43.637Z,82.38
2018-09-26T23:35:47.743Z,81.71
2018-09-26T23:38:51.692Z,82.43
2018-09-26T23:41:55.831Z,82.14
2018-09-26T23:44:59.771Z,82.10
2018-09-26T23:48:03.769Z,82.90
2018-09-26T23:51:07.866Z,82.07
2018-09-26T23:54:11.934Z,82.52
2018-09-26T23:57:15.892Z,82.73
